Time;durP1;ratioP1;P1;durP2;ratioP2;P2;SDS_P1;SDS_P2;PMS_P1;PMS_P2;Temp;Humidity;BMP_temperature;BMP_pressure;BME280_temperature;BME280_humidity;BME280_pressure;Samples;Min_cycle;Max_cycle;Signal;HPM_P1;HPM_P2
2023/10/07 00:02:20;;;;;;;12.52;4.13;;;17.40;99.90;;;;;;5093626;28;20415;-77
2023/10/07 00:04:45;;;;;;;12.27;4.28;;;17.50;99.90;;;;;;5093772;28;20035;-77
2023/10/07 00:07:12;;;;;;;10.95;4.18;;;17.40;99.90;;;;;;5093674;28;20043;-77
2023/10/07 00:09:43;;;;;;;15.77;4.95;;;17.50;99.90;;;;;;5076535;28;20039;-76
2023/10/07 00:12:15;;;;;;;13.38;4.38;;;17.40;99.90;;;;;;5093467;28;20128;-77
2023/10/07 00:14:41;;;;;;;9.48;3.85;;;17.40;99.90;;;;;;5093782;28;20047;-77
2023/10/07 00:17:16;;;;;;;16.02;4.78;;;17.50;99.90;;;;;;5076708;28;20036;-77
2023/10/07 00:19:46;;;;;;;13.30;5.13;;;17.50;99.90;;;;;;5076489;28;20040;-77
2023/10/07 00:22:14;;;;;;;15.32;5.30;;;17.40;99.90;;;;;;5093770;28;20110;-77
2023/10/07 00:24:43;;;;;;;14.02;3.80;;;17.50;99.90;;;;;;5093718;28;20088;-77
2023/10/07 00:27:25;;;;;;;13.85;5.15;;;17.50;99.90;;;;;;5093791;28;20044;-77
2023/10/07 00:29:54;;;;;;;14.10;3.70;;;17.50;99.90;;;;;;5093270;28;20075;-77
2023/10/07 00:32:28;;;;;;;19.95;4.95;;;17.40;99.90;;;;;;5093277;28;20453;-77
2023/10/07 00:35:00;;;;;;;17.92;4.03;;;17.50;99.90;;;;;;5096732;28;20127;-77
2023/10/07 00:37:26;;;;;;;13.97;3.50;;;17.50;99.90;;;;;;5097632;28;20043;-77
2023/10/07 00:39:53;;;;;;;12.95;3.75;;;17.50;99.90;;;;;;5080169;28;20028;-77
2023/10/07 00:42:19;;;;;;;17.67;4.00;;;17.40;99.90;;;;;;5097169;28;20039;-77
2023/10/07 00:44:47;;;;;;;10.95;4.15;;;17.50;99.90;;;;;;5097149;28;20123;-77
2023/10/07 00:47:14;;;;;;;15.60;4.60;;;17.50;99.90;;;;;;5097109;28;20126;-77
2023/10/07 00:49:42;;;;;;;12.00;3.50;;;17.50;99.90;;;;;;5096822;28;20491;-77
2023/10/07 00:52:14;;;;;;;17.63;4.75;;;17.50;99.90;;;;;;5096824;28;20047;-77
2023/10/07 00:59:59;;;;;;;13.95;4.35;;;17.30;99.90;;;;;;5096560;28;20044;-77
2023/10/07 01:02:30;;;;;;;19.25;4.30;;;17.30;99.90;;;;;;5096640;28;20043;-77
2023/10/07 01:05:13;;;;;;;11.98;4.40;;;17.20;99.90;;;;;;5097027;28;20050;-77
2023/10/07 01:07:41;;;;;;;17.70;4.87;;;17.20;99.90;;;;;;5096783;28;20039;-77
2023/10/07 01:12:42;;;;;;;16.88;4.40;;;17.10;99.90;;;;;;5096306;28;20503;-78
2023/10/07 01:17:57;;;;;;;14.93;4.50;;;17.10;99.90;;;;;;5096751;28;20039;-78
2023/10/07 01:20:34;;;;;;;20.42;5.55;;;17.00;99.90;;;;;;5096622;28;20047;-77
2023/10/07 01:23:04;;;;;;;19.13;5.22;;;17.00;99.90;;;;;;5096425;28;20519;-77
2023/10/07 01:25:34;;;;;;;13.48;4.55;;;17.00;99.90;;;;;;5096297;28;20035;-77
2023/10/07 01:28:02;;;;;;;14.43;5.50;;;16.90;99.90;;;;;;5096523;28;20039;-77
2023/10/07 01:30:34;;;;;;;13.25;5.40;;;16.90;99.90;;;;;;5096075;28;20050;-77
2023/10/07 01:36:06;;;;;;;15.15;5.93;;;16.80;99.90;;;;;;5096163;28;20047;-77
2023/10/07 01:38:31;;;;;;;14.63;5.05;;;16.80;99.90;;;;;;5095920;28;20050;-77
2023/10/07 01:41:04;;;;;;;13.95;5.72;;;16.80;99.90;;;;;;5095822;28;20036;-78
2023/10/07 01:43:30;;;;;;;14.82;4.55;;;16.90;99.90;;;;;;5096432;28;20055;-77
2023/10/07 01:45:56;;;;;;;15.23;5.70;;;16.80;99.90;;;;;;5095585;28;20449;-77
2023/10/07 01:48:21;;;;;;;16.70;4.90;;;16.90;99.90;;;;;;5095963;28;20051;-78
2023/10/07 01:50:49;;;;;;;11.65;4.95;;;16.90;99.90;;;;;;5095774;28;20042;-77
2023/10/07 01:53:15;;;;;;;19.25;4.60;;;16.80;99.90;;;;;;5095672;28;20031;-77
2023/10/07 01:55:47;;;;;;;17.48;4.70;;;16.90;99.90;;;;;;5095806;28;20036;-77
2023/10/07 01:58:17;;;;;;;12.43;5.22;;;16.80;99.90;;;;;;5095838;28;20058;-77
2023/10/07 02:00:51;;;;;;;17.35;6.00;;;16.90;99.90;;;;;;5095154;28;20533;-77
2023/10/07 02:03:21;;;;;;;17.92;4.63;;;16.90;99.90;;;;;;5078679;28;20046;-77
2023/10/07 02:05:48;;;;;;;13.70;6.18;;;16.90;99.90;;;;;;5095821;28;20118;-76
2023/10/07 02:08:22;;;;;;;13.48;4.97;;;16.90;99.90;;;;;;5095530;28;20039;-77
2023/10/07 02:13:19;;;;;;;15.38;4.80;;;17.00;99.90;;;;;;5133289;22;20055;-73
2023/10/07 02:15:45;;;;;;;16.38;4.50;;;16.90;99.90;;;;;;5112491;28;20044;-73
2023/10/07 02:18:15;;;;;;;13.93;4.25;;;16.90;99.90;;;;;;5111872;28;20126;-73
2023/10/07 02:21:07;;;;;;;15.60;4.57;;;16.90;99.90;;;;;;5111972;28;20118;-73
2023/10/07 02:24:08;;;;;;;10.85;4.72;;;17.00;99.90;;;;;;5093109;28;20047;-73
2023/10/07 02:26:25;;;;;;;16.25;5.50;;;16.90;99.90;;;;;;5088949;28;20048;-72
2023/10/07 02:28:52;;;;;;;12.50;4.30;;;16.90;99.90;;;;;;5091725;28;20040;-73
2023/10/07 02:31:23;;;;;;;11.95;4.88;;;17.00;99.90;;;;;;5091593;28;20131;-73
2023/10/07 02:33:52;;;;;;;13.82;4.45;;;16.90;99.90;;;;;;5108729;28;20039;-72
2023/10/07 02:36:36;;;;;;;14.55;3.97;;;17.00;99.90;;;;;;5092985;28;20040;-73
2023/10/07 02:39:18;;;;;;;23.08;4.80;;;17.00;99.90;;;;;;5091893;28;20075;-72
2023/10/07 02:41:46;;;;;;;17.42;4.97;;;17.10;99.90;;;;;;5091450;28;20036;-73
2023/10/07 02:44:16;;;;;;;14.00;4.05;;;17.00;99.90;;;;;;5091748;28;20123;-73
2023/10/07 02:46:42;;;;;;;14.23;5.65;;;17.10;99.90;;;;;;5091472;28;20499;-72
2023/10/07 02:49:10;;;;;;;13.13;4.50;;;17.10;99.90;;;;;;5074398;28;20047;-72
2023/10/07 02:51:39;;;;;;;15.82;4.93;;;17.10;99.90;;;;;;5091016;28;20032;-73
2023/10/07 02:54:20;;;;;;;9.80;3.70;;;17.10;99.90;;;;;;5074382;28;20093;-73
2023/10/07 02:57:09;;;;;;;13.07;4.00;;;17.10;99.90;;;;;;5090680;28;20036;-73
2023/10/07 02:59:41;;;;;;;15.27;4.20;;;17.20;99.90;;;;;;5092573;28;20560;-73
2023/10/07 03:02:12;;;;;;;10.15;4.57;;;17.20;99.90;;;;;;5092578;28;20072;-73
2023/10/07 03:04:58;;;;;;;14.00;4.75;;;17.20;99.90;;;;;;5092557;28;20036;-73
2023/10/07 03:07:25;;;;;;;12.30;4.03;;;17.10;99.90;;;;;;5091114;28;20126;-73
2023/10/07 03:10:04;;;;;;;11.30;4.32;;;17.20;99.90;;;;;;5092068;28;20040;-73
2023/10/07 03:12:30;;;;;;;15.50;3.70;;;17.10;99.90;;;;;;5090942;28;20036;-73
2023/10/07 03:15:05;;;;;;;16.08;5.03;;;17.20;99.90;;;;;;5091098;28;20048;-73
2023/10/07 03:17:38;;;;;;;11.75;3.83;;;17.30;99.90;;;;;;5092233;28;20054;-73
2023/10/07 03:26:16;;;;;;;19.17;4.15;;;17.20;99.90;;;;;;5090913;28;19916;-72
2023/10/07 03:28:24;;;;;;;14.57;4.10;;;17.20;99.90;;;;;;5086396;28;20491;-73
2023/10/07 03:30:53;;;;;;;13.82;4.85;;;17.20;99.90;;;;;;5091919;28;20036;-73
2023/10/07 03:33:23;;;;;;;20.83;6.03;;;17.20;99.90;;;;;;5090664;28;20044;-73
2023/10/07 03:38:25;;;;;;;12.32;4.18;;;17.20;99.90;;;;;;5090809;28;20040;-73
2023/10/07 03:40:54;;;;;;;13.10;4.15;;;17.20;99.90;;;;;;5091799;28;20115;-73
2023/10/07 03:43:26;;;;;;;11.48;3.83;;;17.30;99.90;;;;;;5091940;28;20032;-73
2023/10/07 03:45:53;;;;;;;14.55;4.97;;;17.30;99.90;;;;;;5091689;28;20070;-73
2023/10/07 03:48:30;;;;;;;14.65;4.47;;;17.20;99.90;;;;;;5090561;28;20510;-73
2023/10/07 03:50:59;;;;;;;11.77;3.88;;;17.30;99.90;;;;;;5089999;28;20040;-73
2023/10/07 03:53:44;;;;;;;12.23;4.55;;;17.30;99.90;;;;;;5091889;28;20044;-73
2023/10/07 03:56:10;;;;;;;18.65;4.38;;;17.30;99.90;;;;;;5091954;28;20048;-73
2023/10/07 03:58:36;;;;;;;9.77;4.38;;;17.30;99.90;;;;;;5090387;28;20040;-73
2023/10/07 04:01:16;;;;;;;11.07;3.50;;;17.20;99.90;;;;;;5091285;28;20047;-73
2023/10/07 04:03:46;;;;;;;12.32;3.88;;;17.20;99.90;;;;;;5091590;28;20088;-73
2023/10/07 04:06:20;;;;;;;21.67;4.25;;;17.30;99.90;;;;;;5090181;28;20040;-73
2023/10/07 04:08:58;;;;;;;13.82;3.50;;;17.20;99.90;;;;;;5092893;28;20059;-73
2023/10/07 04:11:28;;;;;;;14.98;4.32;;;17.30;99.90;;;;;;5075989;28;20047;-73
2023/10/07 04:13:53;;;;;;;13.48;4.55;;;17.30;99.90;;;;;;5093743;28;20481;-73
2023/10/07 04:16:27;;;;;;;14.93;4.28;;;17.30;99.90;;;;;;5095341;28;20040;-73
2023/10/07 04:19:30;;;;;;;12.63;3.78;;;17.20;99.90;;;;;;5094319;28;20043;-73
2023/10/07 04:21:56;;;;;;;13.63;3.97;;;17.20;99.90;;;;;;5095140;28;20043;-73
2023/10/07 04:24:28;;;;;;;17.23;4.22;;;17.30;99.90;;;;;;5095331;28;20038;-73
2023/10/07 04:26:54;;;;;;;14.13;5.75;;;17.20;99.90;;;;;;5111170;28;20052;-73
2023/10/07 04:29:24;;;;;;;19.30;4.50;;;17.20;99.90;;;;;;5094032;28;20099;-73
2023/10/07 04:31:52;;;;;;;14.02;4.05;;;17.40;99.90;;;;;;5093597;28;20501;-73
2023/10/07 04:34:18;;;;;;;15.10;4.53;;;17.20;99.90;;;;;;5095360;28;20066;-73
2023/10/07 04:39:39;;;;;;;11.68;4.10;;;17.30;99.90;;;;;;5095189;28;20083;-74
2023/10/07 04:42:20;;;;;;;13.13;3.67;;;17.30;99.90;;;;;;5094876;28;20620;-73
2023/10/07 04:47:35;;;;;;;19.50;5.15;;;17.20;99.90;;;;;;5093864;28;20048;-74
2023/10/07 04:52:30;;;;;;;13.00;4.22;;;17.30;99.90;;;;;;5094876;28;20048;-73
2023/10/07 04:54:58;;;;;;;13.52;4.68;;;17.30;99.90;;;;;;5110761;28;20519;-74
2023/10/07 05:00:36;;;;;;;13.20;4.15;;;17.20;99.90;;;;;;5094639;28;20044;-73
2023/10/07 05:03:11;;;;;;;14.70;4.78;;;17.30;99.90;;;;;;5093538;28;20039;-74
2023/10/07 05:05:36;;;;;;;8.70;3.30;;;17.30;99.90;;;;;;5093450;28;20048;-74
2023/10/07 05:08:19;;;;;;;10.65;3.47;;;17.30;99.90;;;;;;5093366;28;20039;-73
2023/10/07 05:10:52;;;;;;;13.67;4.30;;;17.30;99.90;;;;;;5094281;28;20468;-73
2023/10/07 05:13:18;;;;;;;10.02;3.60;;;17.30;99.90;;;;;;5110360;28;20301;-73
2023/10/07 05:15:44;;;;;;;18.70;4.47;;;17.30;99.90;;;;;;5093237;28;20040;-74
2023/10/07 05:18:14;;;;;;;15.55;4.28;;;17.30;99.90;;;;;;5093049;28;20398;-73
2023/10/07 05:20:41;;;;;;;9.35;3.85;;;17.30;99.90;;;;;;5092032;28;20055;-74
2023/10/07 05:23:08;;;;;;;11.98;4.90;;;17.30;99.90;;;;;;5094536;28;20052;-73
2023/10/07 05:25:38;;;;;;;7.57;4.03;;;17.30;99.90;;;;;;5094534;28;20040;-73
2023/10/07 05:28:11;;;;;;;12.95;3.65;;;17.40;99.90;;;;;;5094415;28;20517;-73
2023/10/07 05:30:50;;;;;;;12.85;3.97;;;17.40;99.90;;;;;;5094500;28;20047;-73
2023/10/07 05:33:27;;;;;;;12.95;4.07;;;17.40;99.90;;;;;;5093306;28;20109;-73
2023/10/07 05:36:13;;;;;;;11.02;3.95;;;17.30;99.90;;;;;;5093446;28;20036;-73
2023/10/07 05:38:53;;;;;;;10.50;3.88;;;17.40;99.90;;;;;;5092813;28;20066;-73
2023/10/07 05:41:22;;;;;;;9.98;3.17;;;17.30;99.90;;;;;;5093867;28;20063;-73
2023/10/07 05:43:51;;;;;;;10.25;3.47;;;17.30;99.90;;;;;;5093123;28;20462;-73
2023/10/07 05:46:20;;;;;;;9.65;3.72;;;17.30;99.90;;;;;;5094116;28;20043;-73
2023/10/07 05:48:51;;;;;;;14.80;3.42;;;17.40;99.90;;;;;;5092837;28;20051;-73
2023/10/07 05:51:17;;;;;;;13.63;3.63;;;17.40;99.90;;;;;;5109586;28;20494;-73
2023/10/07 05:53:48;;;;;;;14.27;3.33;;;17.50;99.90;;;;;;5092585;28;20229;-74
2023/10/07 05:56:14;;;;;;;12.18;3.03;;;17.40;99.90;;;;;;5094158;28;20094;-74
2023/10/07 05:58:40;;;;;;;11.60;3.50;;;17.40;99.90;;;;;;5093680;28;20036;-74
2023/10/07 06:01:10;;;;;;;14.10;3.10;;;17.40;99.90;;;;;;5075226;28;20383;-74
2023/10/07 06:03:36;;;;;;;13.52;3.22;;;17.40;99.90;;;;;;5091928;28;20409;-74
2023/10/07 06:06:04;;;;;;;9.05;3.53;;;17.30;99.90;;;;;;5092441;28;20032;-75
2023/10/07 06:08:32;;;;;;;12.57;3.50;;;17.40;99.90;;;;;;5093267;28;20380;-73
2023/10/07 06:10:59;;;;;;;9.45;3.50;;;17.40;99.90;;;;;;5091652;28;20044;-73
2023/10/07 06:13:29;;;;;;;8.38;2.88;;;17.30;99.90;;;;;;5091786;28;20040;-73
2023/10/07 06:15:59;;;;;;;14.65;4.28;;;17.30;99.90;;;;;;5092093;28;20048;-73
2023/10/07 06:18:25;;;;;;;7.60;3.05;;;17.30;99.90;;;;;;5091440;28;20043;-73
2023/10/07 06:20:52;;;;;;;15.82;3.10;;;17.20;99.90;;;;;;5092699;28;20043;-73
2023/10/07 06:23:19;;;;;;;11.40;3.30;;;17.20;99.90;;;;;;5087987;28;20090;-74
2023/10/07 06:25:49;;;;;;;10.85;3.38;;;17.10;99.90;;;;;;5089327;28;20036;-73
2023/10/07 06:28:29;;;;;;;10.85;3.33;;;17.10;99.90;;;;;;5088223;28;20032;-74
2023/10/07 06:31:10;;;;;;;15.07;3.60;;;17.10;99.90;;;;;;5074909;28;20415;-73
2023/10/07 06:33:42;;;;;;;11.80;4.72;;;17.10;99.90;;;;;;5091542;28;20142;-73
2023/10/07 06:36:10;;;;;;;9.43;3.70;;;17.00;99.90;;;;;;5090503;28;20044;-73
2023/10/07 06:38:52;;;;;;;10.15;3.50;;;17.00;99.90;;;;;;5091728;28;20121;-73
2023/10/07 06:41:18;;;;;;;14.52;3.38;;;17.00;99.90;;;;;;5092493;28;20070;-73
2023/10/07 06:43:51;;;;;;;12.75;3.58;;;17.00;99.90;;;;;;5091499;28;20487;-75
2023/10/07 06:46:20;;;;;;;11.40;3.58;;;17.00;99.90;;;;;;5091644;28;20486;-74
2023/10/07 06:48:48;;;;;;;12.02;3.45;;;17.00;99.90;;;;;;5091605;28;20388;-74
2023/10/07 06:51:14;;;;;;;17.77;4.10;;;17.10;99.90;;;;;;5091065;28;20035;-73
2023/10/07 06:53:42;;;;;;;12.57;4.60;;;17.10;99.90;;;;;;5092537;28;20035;-73
2023/10/07 06:56:20;;;;;;;18.70;4.35;;;17.00;99.90;;;;;;5091192;28;20483;-74
2023/10/07 06:58:59;;;;;;;12.77;4.55;;;17.10;99.90;;;;;;5091456;28;20497;-74
2023/10/07 07:01:35;;;;;;;13.68;3.63;;;17.10;99.90;;;;;;5090650;28;20047;-74
2023/10/07 07:04:09;;;;;;;13.90;4.43;;;17.20;99.90;;;;;;5092488;28;20067;-74
2023/10/07 07:06:42;;;;;;;11.57;4.80;;;17.10;99.90;;;;;;5091109;28;20054;-74
2023/10/07 07:12:11;;;;;;;18.33;4.07;;;17.10;99.90;;;;;;5090828;28;20048;-72
2023/10/07 07:14:46;;;;;;;11.50;3.58;;;17.10;99.90;;;;;;5092422;28;20123;-73
2023/10/07 07:17:35;;;;;;;7.72;3.35;;;17.20;99.90;;;;;;5091036;28;20036;-72
2023/10/07 07:22:36;;;;;;;18.17;4.65;;;17.30;99.90;;;;;;5088668;28;20104;-73
2023/10/07 07:25:07;;;;;;;14.15;4.68;;;17.30;99.90;;;;;;5091831;28;20044;-72
2023/10/07 07:27:34;;;;;;;10.18;3.25;;;17.40;99.90;;;;;;5092040;28;20526;-73
2023/10/07 07:30:04;;;;;;;12.05;3.65;;;17.40;99.90;;;;;;5090204;28;20036;-73
2023/10/07 07:32:32;;;;;;;13.60;4.10;;;17.40;99.90;;;;;;5091888;28;20093;-73
2023/10/07 07:35:02;;;;;;;16.15;4.68;;;17.40;99.90;;;;;;5090851;28;20067;-73
2023/10/07 07:37:32;;;;;;;12.02;3.40;;;17.40;99.90;;;;;;5090838;28;20113;-73
2023/10/07 07:40:09;;;;;;;11.20;3.45;;;17.40;99.90;;;;;;5090421;28;20487;-73
2023/10/07 07:42:35;;;;;;;9.38;3.58;;;17.30;99.90;;;;;;5089348;28;20114;-73
2023/10/07 07:45:14;;;;;;;19.10;4.15;;;17.40;99.90;;;;;;5090248;28;20466;-73
2023/10/07 07:47:41;;;;;;;11.65;3.75;;;17.30;99.90;;;;;;5091184;28;20048;-73
2023/10/07 07:50:08;;;;;;;10.15;3.63;;;17.30;99.90;;;;;;5090936;28;20036;-73
2023/10/07 07:52:33;;;;;;;13.40;3.72;;;17.40;99.90;;;;;;5089754;28;20051;-71
2023/10/07 07:54:59;;;;;;;16.30;4.82;;;17.50;99.90;;;;;;5090159;28;20411;-73
2023/10/07 07:57:25;;;;;;;16.02;4.65;;;17.50;99.90;;;;;;5091448;28;20040;-72
2023/10/07 07:59:50;;;;;;;14.90;4.82;;;17.60;99.90;;;;;;5091398;28;20054;-72
2023/10/07 08:02:17;;;;;;;13.70;3.72;;;17.60;99.90;;;;;;5091649;28;20036;-73
2023/10/07 08:04:46;;;;;;;8.68;3.90;;;17.70;99.90;;;;;;5091635;28;20044;-72
2023/10/07 08:07:23;;;;;;;12.15;3.90;;;17.70;99.90;;;;;;5090326;28;20047;-72
2023/10/07 08:09:51;;;;;;;11.43;3.78;;;17.90;99.90;;;;;;5091593;28;20044;-73
2023/10/07 08:12:28;;;;;;;15.10;4.22;;;17.90;99.90;;;;;;5090012;28;20040;-73
2023/10/07 08:14:58;;;;;;;10.88;3.42;;;17.90;99.90;;;;;;5091696;28;20043;-72
2023/10/07 08:17:27;;;;;;;8.13;3.60;;;18.00;99.90;;;;;;5090228;28;20044;-73
2023/10/07 08:19:53;;;;;;;12.23;3.88;;;18.00;99.90;;;;;;5089920;28;20111;-72
2023/10/07 08:22:19;;;;;;;11.43;3.80;;;18.00;99.90;;;;;;5091627;28;20038;-73
2023/10/07 08:24:45;;;;;;;14.48;4.03;;;18.10;99.90;;;;;;5090447;28;20039;-73
2023/10/07 08:29:56;;;;;;;17.40;4.18;;;18.00;99.90;;;;;;5091223;28;20047;-73
2023/10/07 08:35:19;;;;;;;12.48;3.58;;;18.00;99.90;;;;;;5091581;28;20115;-73
2023/10/07 08:37:46;;;;;;;10.50;4.20;;;18.00;99.90;;;;;;5091529;28;20036;-73
2023/10/07 08:40:25;;;;;;;13.38;3.22;;;18.10;99.90;;;;;;5089784;28;20119;-73
2023/10/07 08:42:56;;;;;;;12.85;3.47;;;18.00;99.90;;;;;;5090221;28;20122;-73
2023/10/07 08:45:23;;;;;;;12.95;4.07;;;18.10;99.90;;;;;;5091644;28;20036;-73
2023/10/07 08:47:53;;;;;;;12.30;3.65;;;18.00;99.90;;;;;;5091413;28;20075;-72
2023/10/07 08:50:23;;;;;;;13.43;4.18;;;18.00;99.90;;;;;;5091192;28;20039;-73
2023/10/07 08:53:03;;;;;;;10.27;3.42;;;18.00;99.90;;;;;;5091262;28;20036;-72
2023/10/07 08:55:31;;;;;;;17.67;4.47;;;18.00;99.90;;;;;;5093995;28;20930;-72
2023/10/07 08:58:02;;;;;;;10.30;3.58;;;18.10;99.90;;;;;;5093497;28;20119;-72
2023/10/07 09:00:32;;;;;;;13.48;4.85;;;18.10;99.90;;;;;;5076322;28;20047;-73
2023/10/07 09:02:59;;;;;;;9.45;3.63;;;18.10;99.90;;;;;;5093528;28;20047;-73
2023/10/07 09:05:27;;;;;;;13.57;4.00;;;18.20;99.90;;;;;;5094635;28;20435;-72
2023/10/07 09:07:56;;;;;;;14.63;4.63;;;18.20;99.90;;;;;;5093585;28;20055;-73
2023/10/07 09:10:28;;;;;;;8.45;3.60;;;18.20;99.90;;;;;;5093039;28;20047;-73
2023/10/07 09:12:59;;;;;;;8.15;3.13;;;18.30;99.90;;;;;;5094387;28;20051;-73
2023/10/07 09:15:29;;;;;;;10.60;3.67;;;18.30;99.90;;;;;;5094479;28;20048;-73
2023/10/07 09:18:04;;;;;;;10.65;3.90;;;18.20;99.90;;;;;;5094183;28;20028;-73
2023/10/07 09:20:31;;;;;;;9.88;2.70;;;18.30;99.90;;;;;;5094369;28;20044;-73
2023/10/07 09:23:15;;;;;;;11.82;2.90;;;18.30;99.90;;;;;;5094499;28;20075;-73
2023/10/07 09:25:46;;;;;;;8.55;4.18;;;18.30;99.90;;;;;;5094397;28;20047;-73
2023/10/07 09:28:13;;;;;;;12.45;4.00;;;18.30;99.90;;;;;;5092983;28;20452;-73
2023/10/07 09:33:13;;;;;;;11.20;3.60;;;18.20;99.90;;;;;;5094312;28;20036;-73
2023/10/07 09:35:46;;;;;;;14.25;4.60;;;18.30;99.90;;;;;;5094410;28;20111;-73
2023/10/07 09:38:27;;;;;;;11.98;3.60;;;18.20;99.90;;;;;;5094164;28;20032;-73
2023/10/07 09:43:27;;;;;;;15.38;4.38;;;18.20;99.90;;;;;;5093971;28;20363;-73
2023/10/07 09:45:53;;;;;;;17.73;4.18;;;18.20;99.90;;;;;;5094070;28;20036;-73
2023/10/07 09:48:41;;;;;;;13.82;4.47;;;18.10;99.90;;;;;;5092775;28;20062;-73
2023/10/07 09:51:14;;;;;;;12.52;4.28;;;18.10;99.90;;;;;;5093469;28;20417;-73
2023/10/07 09:53:55;;;;;;;10.20;3.65;;;18.10;99.90;;;;;;5092417;28;20039;-73
2023/10/07 09:56:43;;;;;;;17.50;4.50;;;18.10;99.90;;;;;;5092595;28;20046;-73
2023/10/07 09:59:25;;;;;;;11.23;3.80;;;18.10;99.90;;;;;;5093639;28;20032;-73
2023/10/07 10:02:25;;;;;;;14.55;4.10;;;18.10;99.90;;;;;;5093294;28;20093;-73
2023/10/07 10:05:11;;;;;;;8.32;3.63;;;18.10;99.90;;;;;;5109060;28;20418;-73
2023/10/07 10:08:11;;;;;;;16.70;4.85;;;18.10;99.90;;;;;;5092511;28;20422;-73
2023/10/07 10:10:44;;;;;;;16.42;4.10;;;18.10;99.90;;;;;;5108813;28;20115;-73
2023/10/07 10:13:28;;;;;;;;;;;18.10;99.90;;;;;;5075423;28;20127;-73
2023/10/07 10:15:59;;;;;;;11.93;4.00;;;18.00;99.90;;;;;;5109042;28;19924;-73
2023/10/07 10:18:38;;;;;;;11.63;4.30;;;18.10;99.90;;;;;;5093137;28;20048;-73
2023/10/07 10:21:09;;;;;;;14.35;4.68;;;18.20;99.90;;;;;;5091636;28;20078;-73
2023/10/07 10:23:37;;;;;;;17.80;4.07;;;18.20;99.90;;;;;;5093136;28;20486;-73
2023/10/07 10:26:24;;;;;;;18.88;3.90;;;18.30;99.90;;;;;;5093162;28;20169;-73
2023/10/07 10:29:00;;;;;;;11.15;4.28;;;18.30;99.90;;;;;;5092636;28;20054;-72
2023/10/07 10:31:34;;;;;;;12.75;3.58;;;18.40;99.90;;;;;;5091472;28;20372;-73
2023/10/07 10:34:05;;;;;;;11.30;3.70;;;18.50;99.90;;;;;;5091177;28;20036;-72
2023/10/07 10:36:43;;;;;;;13.98;3.58;;;18.50;99.90;;;;;;5081779;28;20438;-73
2023/10/07 10:39:25;;;;;;;13.75;4.35;;;18.50;99.90;;;;;;5085866;28;20058;-73
2023/10/07 10:41:54;;;;;;;12.30;4.30;;;18.50;99.90;;;;;;5092411;28;20028;-73
2023/10/07 10:44:23;;;;;;;13.90;4.57;;;18.50;99.90;;;;;;5084576;28;20498;-73
2023/10/07 10:46:50;;;;;;;11.70;3.92;;;18.60;99.90;;;;;;5072351;28;20516;-73
2023/10/07 10:49:23;;;;;;;11.02;3.80;;;18.60;99.90;;;;;;5071088;28;20083;-73
2023/10/07 10:51:51;;;;;;;15.77;4.33;;;18.60;99.90;;;;;;5071924;28;20491;-73
2023/10/07 10:54:21;;;;;;;9.55;3.83;;;18.60;99.90;;;;;;5070927;28;20053;-73
2023/10/07 10:56:58;;;;;;;16.40;4.88;;;18.60;99.90;;;;;;5071029;28;20041;-73
2023/10/07 10:59:43;;;;;;;15.23;4.43;;;18.50;99.90;;;;;;5070994;28;20496;-73
2023/10/07 11:02:11;;;;;;;12.35;3.97;;;18.60;99.90;;;;;;5054189;28;20472;-72
2023/10/07 11:04:37;;;;;;;14.23;4.47;;;18.70;99.90;;;;;;5071115;28;20416;-73
2023/10/07 11:07:07;;;;;;;12.20;3.78;;;18.70;99.90;;;;;;5070997;28;20062;-72
2023/10/07 11:09:37;;;;;;;15.45;4.47;;;18.70;99.90;;;;;;5071799;28;20412;-73
2023/10/07 11:12:09;;;;;;;11.90;4.53;;;18.70;99.90;;;;;;5054009;28;20051;-73
2023/10/07 11:14:41;;;;;;;11.27;3.42;;;18.70;99.90;;;;;;5070747;28;20052;-73
2023/10/07 11:17:10;;;;;;;14.32;3.97;;;18.60;99.90;;;;;;5070185;28;20036;-73
2023/10/07 11:19:41;;;;;;;14.88;4.32;;;18.60;99.90;;;;;;5070712;28;20063;-73
2023/10/07 11:22:07;;;;;;;13.60;4.13;;;18.50;99.90;;;;;;5070829;28;20048;-73
2023/10/07 11:24:35;;;;;;;9.25;4.53;;;18.50;99.90;;;;;;5070605;28;20530;-73
2023/10/07 11:27:02;;;;;;;9.57;3.83;;;18.50;99.90;;;;;;5070784;28;20040;-73
2023/10/07 11:29:32;;;;;;;10.82;4.07;;;18.50;99.90;;;;;;5070484;28;20052;-72
2023/10/07 11:32:03;;;;;;;13.52;4.47;;;18.40;99.90;;;;;;5070257;28;20572;-72
2023/10/07 11:34:39;;;;;;;10.68;4.47;;;18.30;99.90;;;;;;5072009;28;20036;-72
2023/10/07 11:37:14;;;;;;;10.10;3.50;;;18.30;99.90;;;;;;5071829;28;20032;-72
2023/10/07 11:39:45;;;;;;;12.95;4.05;;;18.30;99.90;;;;;;5071185;28;20407;-71
2023/10/07 11:42:16;;;;;;;10.52;3.63;;;18.40;99.90;;;;;;5071969;28;20048;-71
2023/10/07 11:44:46;;;;;;;11.35;3.17;;;18.30;99.90;;;;;;5071766;28;20044;-71
2023/10/07 11:47:15;;;;;;;11.90;4.18;;;18.40;99.90;;;;;;5070421;28;20028;-71
2023/10/07 11:49:41;;;;;;;14.50;4.57;;;18.30;99.90;;;;;;5071386;28;20446;-72
2023/10/07 11:52:07;;;;;;;14.07;4.47;;;18.40;99.90;;;;;;5070401;28;20040;-71
2023/10/07 11:54:34;;;;;;;15.00;4.38;;;18.40;99.90;;;;;;5071412;28;20040;-71
2023/10/07 11:57:05;;;;;;;12.07;4.20;;;18.50;99.90;;;;;;5071667;28;20051;-71
2023/10/07 11:59:34;;;;;;;15.80;4.15;;;18.60;99.90;;;;;;5071515;28;20040;-71
2023/10/07 12:02:09;;;;;;;15.05;5.47;;;18.60;99.90;;;;;;5086790;28;20115;-71
2023/10/07 12:04:47;;;;;;;12.52;5.40;;;18.80;99.90;;;;;;5071432;28;20051;-71
2023/10/07 12:07:14;;;;;;;13.55;4.20;;;18.80;99.90;;;;;;5071210;28;20036;-71
2023/10/07 12:09:41;;;;;;;18.17;5.35;;;18.80;99.90;;;;;;5071243;28;20040;-71
2023/10/07 12:12:09;;;;;;;10.35;3.97;;;18.80;99.90;;;;;;5071264;28;20037;-72
2023/10/07 12:14:36;;;;;;;16.67;4.70;;;18.80;99.90;;;;;;5071434;28;20076;-72
2023/10/07 12:17:04;;;;;;;12.95;3.95;;;18.70;99.90;;;;;;5071540;28;20053;-71
2023/10/07 12:19:34;;;;;;;12.30;4.57;;;18.60;99.90;;;;;;5086843;28;20043;-71
2023/10/07 12:22:00;;;;;;;11.90;3.88;;;18.60;99.90;;;;;;5053359;28;20076;-71
2023/10/07 12:24:26;;;;;;;11.30;5.03;;;18.60;99.90;;;;;;5071368;28;20075;-71
2023/10/07 12:26:54;;;;;;;10.25;3.55;;;18.60;99.90;;;;;;5071299;28;20090;-71
2023/10/07 12:29:21;;;;;;;13.10;3.97;;;18.60;99.90;;;;;;5073416;28;20488;-71
2023/10/07 12:31:47;;;;;;;9.02;3.60;;;18.60;99.90;;;;;;5074548;28;20043;-72
2023/10/07 12:34:16;;;;;;;12.07;3.97;;;18.60;99.90;;;;;;5075027;28;20040;-71
2023/10/07 12:36:45;;;;;;;16.10;4.18;;;18.60;99.90;;;;;;5075130;28;20083;-71
2023/10/07 12:39:11;;;;;;;10.55;3.55;;;18.60;99.90;;;;;;5074857;28;20089;-71
2023/10/07 12:41:43;;;;;;;13.00;4.45;;;18.60;99.90;;;;;;5074686;28;20078;-71
2023/10/07 12:44:09;;;;;;;11.00;5.10;;;18.60;99.90;;;;;;5074817;28;20381;-71
2023/10/07 12:46:43;;;;;;;8.60;3.90;;;18.60;99.90;;;;;;5073688;28;20400;-72
2023/10/07 12:49:10;;;;;;;14.80;3.80;;;18.70;99.90;;;;;;5073579;28;20066;-71
2023/10/07 12:51:40;;;;;;;14.68;4.35;;;18.70;99.90;;;;;;5074368;28;20501;-72
2023/10/07 12:54:10;;;;;;;9.75;4.03;;;18.70;99.90;;;;;;5074665;28;20116;-72
2023/10/07 12:56:42;;;;;;;12.55;4.28;;;18.70;99.90;;;;;;5074645;28;20037;-72
2023/10/07 12:59:17;;;;;;;15.93;4.47;;;18.70;99.90;;;;;;5074382;28;20086;-71
2023/10/07 13:01:45;;;;;;;8.77;3.72;;;18.70;99.90;;;;;;5073226;28;20044;-71
2023/10/07 13:04:11;;;;;;;14.88;3.83;;;18.70;99.90;;;;;;5073216;28;20059;-71
2023/10/07 13:06:42;;;;;;;13.05;5.40;;;18.60;99.90;;;;;;5074443;28;20105;-72
2023/10/07 13:09:15;;;;;;;9.75;4.00;;;18.60;99.90;;;;;;5074288;28;20051;-72
2023/10/07 13:11:42;;;;;;;13.88;4.78;;;18.60;99.90;;;;;;5074070;28;20040;-72
2023/10/07 13:14:08;;;;;;;14.23;4.20;;;18.60;99.90;;;;;;5074405;28;20041;-72
2023/10/07 13:16:37;;;;;;;13.57;4.55;;;18.50;99.90;;;;;;5073080;28;20139;-72
2023/10/07 13:19:03;;;;;;;13.90;4.13;;;18.50;99.90;;;;;;5074078;28;20491;-72
2023/10/07 13:21:29;;;;;;;16.95;4.25;;;18.30;99.90;;;;;;5073907;28;20545;-72
2023/10/07 13:23:57;;;;;;;9.75;3.55;;;18.40;99.90;;;;;;5074090;28;20047;-72
2023/10/07 13:26:23;;;;;;;13.25;4.20;;;18.30;99.90;;;;;;5074248;28;20048;-72
2023/10/07 13:28:49;;;;;;;14.00;4.18;;;18.30;99.90;;;;;;5074219;28;20047;-72
2023/10/07 13:31:16;;;;;;;14.25;4.07;;;18.30;99.90;;;;;;5073636;28;20500;-72
2023/10/07 13:33:42;;;;;;;13.88;5.15;;;18.20;99.90;;;;;;5055827;28;20040;-71
2023/10/07 13:36:08;;;;;;;11.15;4.30;;;18.20;99.90;;;;;;5073833;28;20393;-72
2023/10/07 13:38:34;;;;;;;16.55;4.90;;;18.20;99.90;;;;;;5073758;28;20506;-71
2023/10/07 13:41:00;;;;;;;10.52;4.20;;;18.20;99.90;;;;;;5073004;28;20115;-72
2023/10/07 13:43:29;;;;;;;11.43;4.38;;;18.20;99.90;;;;;;5072401;28;20423;-72
2023/10/07 13:45:56;;;;;;;19.38;5.18;;;18.20;99.90;;;;;;5073621;28;20043;-72
2023/10/07 13:48:22;;;;;;;12.48;4.20;;;18.10;99.90;;;;;;5083756;28;20032;-71
2023/10/07 13:50:49;;;;;;;13.20;4.68;;;18.10;99.90;;;;;;5093194;28;20034;-71